createdAt,value
2017-08-22T00:00:35.849Z,0
2017-08-22T00:01:36.570Z,0
2017-08-22T00:02:37.292Z,0
2017-08-22T00:03:38.016Z,0
2017-08-22T00:04:38.782Z,0
2017-08-22T00:05:39.484Z,0
2017-08-22T00:06:40.211Z,0
2017-08-22T00:07:40.959Z,0
2017-08-22T00:08:41.683Z,0
2017-08-22T00:09:42.407Z,0
2017-08-22T00:10:43.155Z,0
2017-08-22T00:11:43.877Z,0
2017-08-22T00:12:44.624Z,0
2017-08-22T00:13:45.343Z,0
2017-08-22T00:14:46.070Z,0
2017-08-22T00:15:46.793Z,0
2017-08-22T00:16:47.515Z,0
2017-08-22T00:17:48.237Z,0
2017-08-22T00:18:48.980Z,0
2017-08-22T00:19:49.706Z,0
2017-08-22T00:20:50.427Z,0
2017-08-22T00:21:51.151Z,0
2017-08-22T00:22:51.872Z,0
2017-08-22T00:23:52.596Z,0
2017-08-22T00:24:53.322Z,0
2017-08-22T00:25:54.068Z,0
2017-08-22T00:26:54.815Z,0
2017-08-22T00:27:55.539Z,0
2017-08-22T00:28:56.260Z,0
2017-08-22T00:29:56.980Z,0
2017-08-22T00:30:57.703Z,0
2017-08-22T00:31:58.447Z,0
2017-08-22T00:32:59.174Z,0
2017-08-22T00:33:59.895Z,0
2017-08-22T00:35:00.643Z,0
2017-08-22T00:36:01.363Z,0
2017-08-22T00:37:02.115Z,0
2017-08-22T00:38:02.862Z,0
2017-08-22T00:39:03.583Z,0
2017-08-22T00:40:04.325Z,0
2017-08-22T00:41:05.053Z,0
2017-08-22T00:42:05.774Z,0
2017-08-22T00:43:06.496Z,0
2017-08-22T00:44:07.241Z,0
2017-08-22T00:45:07.966Z,0
2017-08-22T00:46:08.689Z,0
2017-08-22T00:47:09.411Z,0
2017-08-22T00:48:10.137Z,0
2017-08-22T00:49:10.885Z,0
2017-08-22T00:50:11.606Z,0
2017-08-22T00:51:12.327Z,0
2017-08-22T00:52:13.051Z,0
2017-08-22T00:53:13.775Z,0
2017-08-22T00:54:14.519Z,0
2017-08-22T00:55:15.244Z,0
2017-08-22T00:56:15.970Z,0
2017-08-22T00:57:16.691Z,0
2017-08-22T00:58:17.415Z,0
2017-08-22T00:59:18.141Z,0
2017-08-22T01:00:18.858Z,0
2017-08-22T01:01:19.580Z,0
2017-08-22T01:02:20.303Z,0
2017-08-22T01:04:21.651Z,0
2017-08-22T01:05:22.382Z,0
2017-08-22T01:06:23.128Z,0
2017-08-22T01:07:23.869Z,0
2017-08-22T01:08:24.617Z,0
2017-08-22T01:09:25.342Z,0
2017-08-22T01:10:26.063Z,0
2017-08-22T01:11:26.785Z,0
2017-08-22T01:12:27.533Z,0
2017-08-22T01:13:28.256Z,0
2017-08-22T01:14:28.976Z,0
2017-08-22T01:15:29.701Z,0
2017-08-22T01:16:30.446Z,0
2017-08-22T01:17:31.195Z,0
2017-08-22T01:18:31.917Z,0
2017-08-22T01:19:32.666Z,0
2017-08-22T01:20:33.389Z,0
2017-08-22T01:21:34.109Z,0
2017-08-22T01:22:34.855Z,0
2017-08-22T01:23:35.578Z,0
2017-08-22T01:24:36.303Z,0
2017-08-22T01:25:37.022Z,0
2017-08-22T01:26:37.775Z,0
2017-08-22T01:27:38.523Z,0
2017-08-22T01:28:39.273Z,0
2017-08-22T01:29:39.996Z,0
2017-08-22T01:30:40.719Z,0
2017-08-22T01:31:41.444Z,0
2017-08-22T01:32:42.165Z,0
2017-08-22T01:33:42.889Z,0
2017-08-22T01:34:43.617Z,0
2017-08-22T01:35:44.369Z,0
2017-08-22T01:36:45.090Z,0
2017-08-22T01:37:45.810Z,0
2017-08-22T01:38:46.530Z,0
2017-08-22T01:39:47.251Z,0
2017-08-22T01:40:47.977Z,0
2017-08-22T01:41:48.700Z,0
2017-08-22T01:42:49.423Z,0
2017-08-22T01:43:50.146Z,0
2017-08-22T01:44:50.868Z,0
2017-08-22T01:45:51.596Z,0
2017-08-22T01:46:52.343Z,0
2017-08-22T01:47:53.043Z,0
2017-08-22T01:48:53.769Z,0
2017-08-22T01:49:54.492Z,0
2017-08-22T01:50:55.238Z,0
2017-08-22T01:51:55.962Z,0
2017-08-22T01:52:56.684Z,0
2017-08-22T01:53:57.405Z,0
2017-08-22T01:54:58.130Z,0
2017-08-22T01:55:58.855Z,0
2017-08-22T01:56:59.577Z,0
2017-08-22T01:58:00.321Z,0
2017-08-22T01:59:01.046Z,0
2017-08-22T02:00:01.768Z,0
2017-08-22T02:01:02.496Z,0
2017-08-22T02:02:03.218Z,0
2017-08-22T02:03:03.940Z,0
2017-08-22T02:04:04.666Z,0
2017-08-22T02:05:05.424Z,0
2017-08-22T02:06:06.141Z,0
2017-08-22T02:07:06.891Z,0
2017-08-22T02:08:07.612Z,0
2017-08-22T02:09:08.339Z,0
2017-08-22T02:10:09.089Z,0
2017-08-22T02:11:09.808Z,0
2017-08-22T02:12:10.554Z,0
2017-08-22T02:13:11.274Z,0
2017-08-22T02:14:11.999Z,0
2017-08-22T02:15:12.725Z,0
2017-08-22T02:16:13.448Z,0
2017-08-22T02:17:14.195Z,0
2017-08-22T02:18:14.919Z,0
2017-08-22T02:19:15.638Z,0
2017-08-22T02:20:16.359Z,0
2017-08-22T02:21:17.084Z,0
2017-08-22T02:22:17.807Z,0
2017-08-22T02:23:18.537Z,0
2017-08-22T02:24:19.256Z,0
2017-08-22T02:25:19.979Z,0
2017-08-22T02:26:20.725Z,0
2017-08-22T02:27:21.473Z,0
2017-08-22T02:28:22.194Z,0
2017-08-22T02:29:22.916Z,0
2017-08-22T02:30:23.643Z,0
2017-08-22T02:31:24.366Z,0
2017-08-22T02:32:25.089Z,0
2017-08-22T02:33:25.810Z,0
2017-08-22T02:34:26.535Z,0
2017-08-22T02:35:27.260Z,0
2017-08-22T02:36:27.981Z,0
2017-08-22T02:37:28.705Z,0
2017-08-22T02:38:29.448Z,0
2017-08-22T02:39:30.172Z,0
2017-08-22T02:40:30.920Z,0
2017-08-22T02:41:31.671Z,0
2017-08-22T02:42:32.396Z,0
2017-08-22T02:43:33.146Z,0
2017-08-22T02:44:33.868Z,0
2017-08-22T02:45:34.588Z,0
2017-08-22T02:46:35.312Z,0
2017-08-22T02:47:36.037Z,0
2017-08-22T02:48:36.786Z,0
2017-08-22T02:49:37.510Z,0
2017-08-22T02:50:38.231Z,0
2017-08-22T02:51:38.959Z,0
2017-08-22T02:52:39.676Z,0
2017-08-22T02:53:40.401Z,0
2017-08-22T02:54:41.131Z,0
2017-08-22T02:55:41.844Z,0
2017-08-22T02:56:42.574Z,0
2017-08-22T02:57:43.290Z,0
2017-08-22T02:58:44.012Z,0
2017-08-22T02:59:44.739Z,0
2017-08-22T03:00:45.458Z,0
2017-08-22T03:01:46.201Z,0
2017-08-22T03:02:46.953Z,0
2017-08-22T03:03:47.700Z,0
2017-08-22T03:04:48.421Z,0
2017-08-22T03:05:49.146Z,0
2017-08-22T03:06:49.869Z,0
2017-08-22T03:07:50.687Z,0
2017-08-22T03:08:51.413Z,0
2017-08-22T03:09:52.135Z,0
2017-08-22T03:10:52.860Z,0
2017-08-22T03:11:53.581Z,0
2017-08-22T03:12:54.305Z,0
2017-08-22T03:13:55.275Z,0
2017-08-22T03:14:56.000Z,0
2017-08-22T03:15:56.747Z,0
2017-08-22T03:16:57.472Z,0
2017-08-22T03:17:58.191Z,0
2017-08-22T03:18:58.919Z,0
2017-08-22T03:19:59.641Z,0
2017-08-22T03:21:00.361Z,0
2017-08-22T03:22:01.107Z,0
2017-08-22T03:23:01.851Z,0
2017-08-22T03:24:02.586Z,0
2017-08-22T03:25:03.307Z,0
2017-08-22T03:26:04.032Z,0
2017-08-22T03:27:04.754Z,0
2017-08-22T03:28:05.478Z,0
2017-08-22T03:29:06.205Z,0
2017-08-22T03:30:06.931Z,0
2017-08-22T03:31:07.654Z,0
2017-08-22T03:32:08.404Z,0
2017-08-22T03:33:09.126Z,0
2017-08-22T03:34:09.869Z,0
2017-08-22T03:35:10.609Z,0
2017-08-22T03:36:11.334Z,0
2017-08-22T03:37:12.078Z,0
2017-08-22T03:38:12.803Z,0
2017-08-22T03:39:13.550Z,0
2017-08-22T03:40:14.282Z,0
2017-08-22T03:41:15.006Z,0
2017-08-22T03:42:15.733Z,0
2017-08-22T03:43:16.454Z,0
2017-08-22T03:44:17.203Z,0
2017-08-22T03:45:17.924Z,0
2017-08-22T03:46:18.644Z,0
2017-08-22T03:47:19.372Z,0
2017-08-22T03:48:20.112Z,0
2017-08-22T03:49:20.836Z,0
2017-08-22T03:50:21.556Z,0
2017-08-22T03:51:22.373Z,0
2017-08-22T03:52:23.096Z,0
2017-08-22T03:53:23.821Z,0
2017-08-22T03:54:24.545Z,0
2017-08-22T03:55:25.294Z,0
2017-08-22T03:56:26.085Z,0
2017-08-22T03:57:26.802Z,0
2017-08-22T03:58:27.529Z,0
2017-08-22T03:59:28.250Z,4
2017-08-22T04:00:28.973Z,4
2017-08-22T04:01:29.698Z,4
2017-08-22T04:02:30.421Z,0
2017-08-22T04:03:31.146Z,4
2017-08-22T04:04:31.872Z,4
2017-08-22T04:05:32.597Z,4
2017-08-22T04:06:33.321Z,4
2017-08-22T04:07:34.044Z,8
2017-08-22T04:08:34.769Z,4
2017-08-22T04:09:35.514Z,4
2017-08-22T04:10:36.236Z,8
2017-08-22T04:11:36.962Z,8
2017-08-22T04:12:37.787Z,12
2017-08-22T04:13:38.507Z,16
2017-08-22T04:14:39.254Z,20
2017-08-22T04:15:40.005Z,20
2017-08-22T04:16:40.728Z,24
2017-08-22T04:17:41.469Z,24
2017-08-22T04:18:42.305Z,24
2017-08-22T04:19:43.031Z,28
2017-08-22T04:20:43.778Z,32
2017-08-22T04:21:44.501Z,32
2017-08-22T04:22:45.260Z,36
2017-08-22T04:23:45.949Z,40
2017-08-22T04:24:46.701Z,40
2017-08-22T04:25:47.422Z,40
2017-08-22T04:26:48.148Z,44
2017-08-22T04:27:48.900Z,52
2017-08-22T04:28:49.651Z,60
2017-08-22T04:29:50.376Z,64
2017-08-22T04:30:51.097Z,72
2017-08-22T04:31:51.823Z,76
2017-08-22T04:32:52.547Z,88
2017-08-22T04:33:53.271Z,96
2017-08-22T04:34:53.996Z,104
2017-08-22T04:35:54.720Z,116
2017-08-22T04:36:55.522Z,124
2017-08-22T04:37:56.247Z,140
2017-08-22T04:38:56.995Z,152
2017-08-22T04:39:57.721Z,168
2017-08-22T04:40:58.444Z,184
2017-08-22T04:41:59.172Z,200
2017-08-22T04:42:59.897Z,220
2017-08-22T04:44:00.623Z,236
2017-08-22T04:45:01.374Z,264
2017-08-22T04:46:02.098Z,280
2017-08-22T04:47:02.828Z,304
2017-08-22T04:48:03.577Z,332
2017-08-22T04:49:04.304Z,356
2017-08-22T04:50:05.032Z,380
2017-08-22T04:51:05.760Z,408
2017-08-22T04:52:06.513Z,436
2017-08-22T04:53:07.263Z,460
2017-08-22T04:54:08.014Z,488
2017-08-22T04:55:08.763Z,512
2017-08-22T04:56:09.488Z,532
2017-08-22T04:57:10.236Z,556
2017-08-22T04:58:10.965Z,588
2017-08-22T04:59:11.742Z,628
2017-08-22T05:00:12.468Z,672
2017-08-22T05:01:13.221Z,716
2017-08-22T05:02:13.947Z,760
2017-08-22T05:03:14.676Z,804
2017-08-22T05:04:15.401Z,840
2017-08-22T05:05:16.129Z,880
2017-08-22T05:06:16.855Z,916
2017-08-22T05:07:17.583Z,956
2017-08-22T05:08:18.332Z,1000
2017-08-22T05:09:19.061Z,1056
2017-08-22T05:10:19.791Z,1112
2017-08-22T05:11:20.543Z,1168
2017-08-22T05:12:21.273Z,1208
2017-08-22T05:13:21.999Z,1240
2017-08-22T05:14:22.769Z,1292
2017-08-22T05:15:23.500Z,1360
2017-08-22T05:16:24.250Z,1400
2017-08-22T05:17:24.984Z,1420
2017-08-22T05:18:25.702Z,1448
2017-08-22T05:19:26.430Z,1480
2017-08-22T05:20:27.164Z,1516
2017-08-22T05:21:27.940Z,1552
2017-08-22T05:22:28.663Z,1568
2017-08-22T05:23:29.392Z,1580
2017-08-22T05:24:30.121Z,1576
2017-08-22T05:25:30.874Z,1576
2017-08-22T05:26:31.604Z,1572
2017-08-22T05:27:32.329Z,1560
2017-08-22T05:28:33.056Z,1564
2017-08-22T05:29:33.788Z,1568
2017-08-22T05:30:34.518Z,1540
2017-08-22T05:31:35.272Z,1512
2017-08-22T05:32:35.997Z,1500
2017-08-22T05:33:36.725Z,1520
2017-08-22T05:34:37.479Z,1552
2017-08-22T05:35:38.206Z,1592
2017-08-22T05:36:38.938Z,1648
2017-08-22T05:37:39.662Z,1708
2017-08-22T05:38:40.393Z,1776
2017-08-22T05:39:41.125Z,1844
2017-08-22T05:40:41.853Z,1904
2017-08-22T05:41:42.607Z,1956
2017-08-22T05:42:43.428Z,2000
2017-08-22T05:43:44.181Z,2068
2017-08-22T05:44:44.908Z,2160
2017-08-22T05:45:45.641Z,2256
2017-08-22T05:46:46.370Z,2332
2017-08-22T05:47:47.101Z,2392
2017-08-22T05:48:47.967Z,2464
2017-08-22T05:49:48.698Z,2520
2017-08-22T05:50:49.426Z,2556
2017-08-22T05:51:50.153Z,2584
2017-08-22T05:52:50.878Z,2620
2017-08-22T05:53:51.668Z,2648
2017-08-22T05:54:52.397Z,2688
2017-08-22T05:55:53.127Z,2740
2017-08-22T05:56:53.854Z,2792
2017-08-22T05:57:54.584Z,2808
2017-08-22T05:58:55.310Z,2808
2017-08-22T05:59:56.041Z,2824
2017-08-22T06:00:56.768Z,2876
2017-08-22T06:01:57.493Z,2960
2017-08-22T06:02:58.224Z,3116
2017-08-22T06:03:58.951Z,3260
2017-08-22T06:04:59.820Z,3400
2017-08-22T06:06:00.551Z,3476
2017-08-22T06:07:01.282Z,3556
2017-08-22T06:08:02.033Z,3652
2017-08-22T06:09:02.764Z,3772
2017-08-22T06:10:03.518Z,3916
2017-08-22T06:11:04.244Z,4048
2017-08-22T06:12:04.997Z,4116
2017-08-22T06:13:05.727Z,4216
2017-08-22T06:14:06.454Z,4348
2017-08-22T06:15:07.187Z,4444
2017-08-22T06:16:08.019Z,4544
2017-08-22T06:17:08.776Z,4656
2017-08-22T06:18:09.502Z,4732
2017-08-22T06:19:10.237Z,4716
2017-08-22T06:20:10.992Z,4728
2017-08-22T06:21:11.855Z,4816
2017-08-22T06:22:12.586Z,4908
2017-08-22T06:23:13.317Z,5012
2017-08-22T06:24:14.074Z,5200
2017-08-22T06:25:14.859Z,5316
2017-08-22T06:26:15.537Z,5524
2017-08-22T06:27:16.263Z,5848
2017-08-22T06:28:16.998Z,6088
2017-08-22T06:29:17.729Z,6244
2017-08-22T06:30:18.467Z,6328
2017-08-22T06:31:19.218Z,6420
2017-08-22T06:32:19.946Z,6628
2017-08-22T06:33:20.674Z,6848
2017-08-22T06:34:21.403Z,7088
2017-08-22T06:35:22.136Z,7388
2017-08-22T06:36:22.867Z,7628
2017-08-22T06:37:23.595Z,7724
2017-08-22T06:38:24.323Z,7764
2017-08-22T06:39:25.109Z,7796
2017-08-22T06:40:25.864Z,7784
2017-08-22T06:41:26.600Z,7784
2017-08-22T06:42:27.355Z,7808
2017-08-22T06:43:28.087Z,7824
2017-08-22T06:44:28.817Z,7764
2017-08-22T06:45:29.547Z,7796
2017-08-22T06:46:30.280Z,7884
2017-08-22T06:47:31.010Z,8044
2017-08-22T06:48:31.746Z,8136
2017-08-22T06:49:32.494Z,8180
2017-08-22T06:50:33.223Z,8212
2017-08-22T06:51:33.952Z,8244
2017-08-22T06:52:34.685Z,8280
2017-08-22T06:53:35.437Z,8368
2017-08-22T06:54:36.189Z,8484
2017-08-22T06:55:36.926Z,8508
2017-08-22T06:56:37.661Z,8484
2017-08-22T06:57:38.398Z,8428
2017-08-22T06:58:39.125Z,8344
2017-08-22T06:59:39.867Z,8220
2017-08-22T07:00:40.586Z,8236
2017-08-22T07:01:41.315Z,8240
2017-08-22T07:02:42.071Z,8524
2017-08-22T07:03:42.824Z,8612
2017-08-22T07:04:43.558Z,8800
2017-08-22T07:05:44.295Z,9476
2017-08-22T07:06:45.130Z,9500
2017-08-22T07:07:45.860Z,9224
2017-08-22T07:08:46.588Z,9164
2017-08-22T07:09:47.344Z,9108
2017-08-22T07:10:48.079Z,9252
2017-08-22T07:11:48.809Z,9392
2017-08-22T07:12:49.542Z,9792
2017-08-22T07:13:50.272Z,9848
2017-08-22T07:14:51.005Z,10528
2017-08-22T07:15:51.739Z,10524
2017-08-22T07:16:52.480Z,11344
2017-08-22T07:17:53.235Z,11216
2017-08-22T07:18:53.966Z,12236
2017-08-22T07:19:54.701Z,12892
2017-08-22T07:20:55.436Z,11696
2017-08-22T07:21:56.165Z,11628
2017-08-22T07:22:56.951Z,11124
2017-08-22T07:23:57.684Z,11252
2017-08-22T07:24:58.417Z,10796
2017-08-22T07:25:59.150Z,10424
2017-08-22T07:26:59.885Z,10360
2017-08-22T07:28:00.623Z,10208
2017-08-22T07:29:01.379Z,10056
2017-08-22T07:30:02.134Z,10036
2017-08-22T07:31:02.867Z,10488
2017-08-22T07:32:03.597Z,11292
2017-08-22T07:33:04.336Z,13040
2017-08-22T07:34:05.067Z,13212
2017-08-22T07:35:05.828Z,13488
2017-08-22T07:36:06.592Z,17376
2017-08-22T07:37:07.353Z,16384
2017-08-22T07:38:08.113Z,13724
2017-08-22T07:39:08.846Z,13632
2017-08-22T07:40:09.583Z,11624
2017-08-22T07:41:10.320Z,11220
2017-08-22T07:42:11.059Z,10536
2017-08-22T07:43:11.780Z,10548
2017-08-22T07:44:12.591Z,10664
2017-08-22T07:45:13.327Z,11124
2017-08-22T07:46:14.057Z,12488
2017-08-22T07:47:14.789Z,12744
2017-08-22T07:48:15.522Z,14652
2017-08-22T07:49:16.255Z,14504
2017-08-22T07:50:17.023Z,15968
2017-08-22T07:51:17.759Z,15304
2017-08-22T07:52:18.493Z,15200
2017-08-22T07:53:19.249Z,16064
2017-08-22T07:54:19.985Z,14552
2017-08-22T07:55:20.849Z,15112
2017-08-22T07:56:21.583Z,14960
2017-08-22T07:57:22.342Z,14748
2017-08-22T07:58:23.099Z,14824
2017-08-22T07:59:23.857Z,14728
2017-08-22T08:00:24.594Z,16800
2017-08-22T08:01:25.333Z,24448
2017-08-22T08:02:26.066Z,19168
2017-08-22T08:03:26.805Z,13836
2017-08-22T08:04:27.541Z,14944
2017-08-22T08:05:28.274Z,18656
2017-08-22T08:06:29.012Z,16288
2017-08-22T08:07:29.745Z,16992
2017-08-22T08:08:30.489Z,21600
2017-08-22T08:09:31.219Z,23424
2017-08-22T08:10:31.954Z,27328
2017-08-22T08:11:32.693Z,28576
2017-08-22T08:12:33.603Z,26208
2017-08-22T08:13:34.370Z,18784
2017-08-22T08:14:35.134Z,17600
2017-08-22T08:15:35.871Z,19520
2017-08-22T08:16:36.612Z,24512
2017-08-22T08:17:37.350Z,31904
2017-08-22T08:18:38.091Z,28608
2017-08-22T08:19:38.855Z,24288
2017-08-22T08:20:39.599Z,25248
2017-08-22T08:21:40.341Z,28416
2017-08-22T08:22:41.083Z,23456
2017-08-22T08:23:41.828Z,30592
2017-08-22T08:24:42.565Z,33600
2017-08-22T08:25:43.311Z,37120
2017-08-22T08:26:44.054Z,39200
2017-08-22T08:27:44.821Z,39872
2017-08-22T08:28:45.561Z,41216
2017-08-22T08:29:46.325Z,40864
2017-08-22T08:30:47.069Z,41696
2017-08-22T08:31:47.806Z,40672
2017-08-22T08:32:48.546Z,40096
2017-08-22T08:33:49.397Z,38720
2017-08-22T08:34:50.160Z,39424
2017-08-22T08:35:50.897Z,39104
2017-08-22T08:36:51.638Z,39296
2017-08-22T08:37:52.400Z,40448
2017-08-22T08:38:53.237Z,40736
2017-08-22T08:39:54.004Z,40448
2017-08-22T08:40:54.743Z,36448
2017-08-22T08:41:55.485Z,26496
2017-08-22T08:42:56.251Z,21984
2017-08-22T08:43:56.990Z,21472
2017-08-22T08:44:57.732Z,21312
2017-08-22T08:45:58.477Z,21248
2017-08-22T08:46:59.241Z,21440
2017-08-22T08:47:59.987Z,21536
2017-08-22T08:49:00.732Z,21536
2017-08-22T08:50:01.475Z,21472
2017-08-22T08:51:02.218Z,21568
2017-08-22T08:52:02.988Z,21536
2017-08-22T08:53:03.731Z,21568
2017-08-22T08:54:04.473Z,21664
2017-08-22T08:55:05.218Z,21856
2017-08-22T08:56:05.985Z,22144
2017-08-22T08:57:06.730Z,22336
2017-08-22T08:58:07.474Z,22304
2017-08-22T08:59:08.216Z,22304
2017-08-22T09:00:09.083Z,22112
2017-08-22T09:01:09.827Z,22176
2017-08-22T09:02:10.569Z,22336
2017-08-22T09:03:11.317Z,22368
2017-08-22T09:04:12.078Z,22336
2017-08-22T09:05:12.820Z,22368
2017-08-22T09:06:13.572Z,22560
2017-08-22T09:07:14.332Z,22880
2017-08-22T09:08:15.076Z,23360
2017-08-22T09:09:15.820Z,24480
2017-08-22T09:10:16.572Z,32704
2017-08-22T09:11:17.343Z,43488
2017-08-22T09:12:18.083Z,45888
2017-08-22T09:13:18.830Z,46880
2017-08-22T09:14:19.575Z,47744
2017-08-22T09:15:20.320Z,47328
2017-08-22T09:16:21.187Z,46496
2017-08-22T09:17:21.957Z,46880
2017-08-22T09:18:22.702Z,46336
2017-08-22T09:19:23.446Z,46400
2017-08-22T09:20:24.215Z,46304
2017-08-22T09:21:24.958Z,47008
2017-08-22T09:22:25.704Z,48800
2017-08-22T09:23:26.470Z,50208
2017-08-22T09:24:27.211Z,50720
2017-08-22T09:25:27.957Z,51616
2017-08-22T09:26:28.701Z,52256
2017-08-22T09:27:29.449Z,51840
2017-08-22T09:28:30.190Z,49920
2017-08-22T09:29:30.934Z,50208
2017-08-22T09:30:31.683Z,51008
2017-08-22T09:31:32.429Z,51104
2017-08-22T09:32:33.175Z,52064
2017-08-22T09:33:33.941Z,51456
2017-08-22T09:34:34.688Z,49760
2017-08-22T09:35:35.433Z,50336
2017-08-22T09:36:36.191Z,50784
2017-08-22T09:37:36.937Z,51008
2017-08-22T09:38:37.686Z,51584
2017-08-22T09:39:38.431Z,51232
2017-08-22T09:40:39.181Z,52608
2017-08-22T09:41:39.930Z,52288
2017-08-22T09:42:40.673Z,52704
2017-08-22T09:43:41.447Z,52640
2017-08-22T09:44:42.195Z,52672
2017-08-22T09:45:42.947Z,54432
2017-08-22T09:47:46.475Z,54752
2017-08-22T09:48:47.223Z,54592
2017-08-22T09:49:47.992Z,56736
2017-08-22T09:50:48.771Z,56064
2017-08-22T09:51:49.523Z,56608
2017-08-22T09:52:50.277Z,57248
2017-08-22T09:53:51.032Z,56256
2017-08-22T09:54:51.786Z,56928
2017-08-22T09:55:52.543Z,56032
2017-08-22T09:56:53.295Z,56928
2017-08-22T09:57:54.049Z,57280
2017-08-22T09:58:54.801Z,57856
2017-08-22T09:59:55.549Z,57344
2017-08-22T10:00:56.304Z,57504
2017-08-22T10:01:57.052Z,58592
2017-08-22T10:02:57.805Z,58240
2017-08-22T10:03:58.580Z,57952
2017-08-22T10:04:59.348Z,57248
2017-08-22T10:06:00.123Z,57056
2017-08-22T10:07:00.878Z,56736
2017-08-22T10:08:01.626Z,57376
2017-08-22T10:09:02.381Z,57536
2017-08-22T10:10:03.153Z,54240
2017-08-22T10:11:03.906Z,57120
2017-08-22T10:12:04.659Z,50912
2017-08-22T10:13:05.433Z,56064
2017-08-22T10:14:06.185Z,53984
2017-08-22T10:15:06.958Z,51936
2017-08-22T10:16:07.715Z,54208
2017-08-22T10:17:08.467Z,51424
2017-08-22T10:18:09.219Z,52768
2017-08-22T10:19:09.966Z,34976
2017-08-22T10:20:10.720Z,23200
2017-08-22T10:21:11.491Z,40736
2017-08-22T10:22:12.261Z,40544
2017-08-22T10:23:13.016Z,21472
2017-08-22T10:24:13.789Z,50304
2017-08-22T10:25:14.568Z,56544
2017-08-22T10:26:15.318Z,40128
2017-08-22T10:27:16.069Z,26176
2017-08-22T10:28:16.823Z,40864
2017-08-22T10:29:17.575Z,52352
2017-08-22T10:30:18.333Z,52544
2017-08-22T10:31:19.081Z,25312
2017-08-22T10:32:19.831Z,42592
2017-08-22T10:33:20.606Z,36448
2017-08-22T10:34:21.358Z,22528
2017-08-22T10:35:22.109Z,24640
2017-08-22T10:36:22.855Z,25056
2017-08-22T10:37:23.631Z,23328
2017-08-22T10:38:24.378Z,22816
2017-08-22T10:39:25.122Z,34720
2017-08-22T10:40:25.871Z,54080
2017-08-22T10:41:26.641Z,18592
2017-08-22T10:42:27.393Z,17664
2017-08-22T10:43:28.137Z,18080
2017-08-22T10:44:28.874Z,18016
2017-08-22T10:45:29.640Z,18816
2017-08-22T10:46:30.386Z,19616
2017-08-22T10:47:31.128Z,20672
2017-08-22T10:48:31.871Z,22656
2017-08-22T10:49:32.638Z,61856
2017-08-22T10:50:33.408Z,31616
2017-08-22T10:51:34.170Z,30464
2017-08-22T10:52:34.914Z,41440
2017-08-22T10:53:35.681Z,35296
2017-08-22T10:54:36.430Z,20384
2017-08-22T10:55:37.171Z,18368
2017-08-22T10:56:37.915Z,17408
2017-08-22T10:57:38.660Z,17248
2017-08-22T10:58:39.396Z,16800
2017-08-22T10:59:40.137Z,16452
2017-08-22T11:00:40.882Z,16324
2017-08-22T11:01:41.625Z,16252
2017-08-22T11:02:42.361Z,15556
2017-08-22T11:03:43.104Z,14904
2017-08-22T11:04:43.844Z,15168
2017-08-22T11:05:44.588Z,15244
2017-08-22T11:06:45.332Z,15140
2017-08-22T11:07:46.070Z,15084
2017-08-22T11:08:46.812Z,15124
2017-08-22T11:09:47.552Z,15620
2017-08-22T11:10:48.320Z,16396
2017-08-22T11:11:49.057Z,17632
2017-08-22T11:12:49.799Z,20000
2017-08-22T11:13:50.534Z,22720
2017-08-22T11:14:51.280Z,66624
2017-08-22T11:15:52.048Z,68928
2017-08-22T11:16:52.792Z,69408
2017-08-22T11:17:53.529Z,69984
2017-08-22T11:18:54.272Z,70272
2017-08-22T11:19:55.043Z,70752
2017-08-22T11:20:55.814Z,70912
2017-08-22T11:21:56.556Z,69600
2017-08-22T11:22:57.300Z,68960
2017-08-22T11:23:58.069Z,14176
2017-08-22T11:24:58.810Z,13664
2017-08-22T11:25:59.570Z,13280
2017-08-22T11:27:00.316Z,12832
2017-08-22T11:28:01.059Z,11448
2017-08-22T11:29:01.801Z,10624
2017-08-22T11:30:02.568Z,9700
2017-08-22T11:31:03.333Z,9220
2017-08-22T11:32:04.075Z,8528
2017-08-22T11:33:04.823Z,8644
2017-08-22T11:34:05.563Z,9916
2017-08-22T11:35:06.303Z,8484
2017-08-22T11:36:07.067Z,7772
2017-08-22T11:37:07.832Z,8684
2017-08-22T11:38:08.570Z,8924
2017-08-22T11:39:09.315Z,8180
2017-08-22T11:40:10.076Z,7492
2017-08-22T11:41:10.816Z,7184
2017-08-22T11:42:11.554Z,6916
2017-08-22T11:43:12.294Z,6640
2017-08-22T11:44:13.031Z,8356
2017-08-22T11:45:13.771Z,9264
2017-08-22T11:46:14.510Z,9440
2017-08-22T11:47:15.250Z,9108
2017-08-22T11:48:16.014Z,8904
2017-08-22T11:49:16.754Z,9012
2017-08-22T11:50:17.519Z,9560
2017-08-22T11:51:18.255Z,9840
2017-08-22T11:52:18.996Z,10128
2017-08-22T11:53:19.741Z,10552
2017-08-22T11:54:20.479Z,10520
2017-08-22T11:55:21.224Z,10136
2017-08-22T11:56:21.960Z,9104
2017-08-22T11:57:22.699Z,8484
2017-08-22T11:58:23.436Z,9452
2017-08-22T11:59:24.178Z,9844
2017-08-22T12:00:24.943Z,9560
2017-08-22T12:01:25.680Z,8548
2017-08-22T12:02:26.416Z,8044
2017-08-22T12:03:27.150Z,7620
2017-08-22T12:04:27.891Z,7488
2017-08-22T12:05:28.625Z,7248
2017-08-22T12:06:29.362Z,6732
2017-08-22T12:07:30.099Z,6412
2017-08-22T12:08:30.837Z,6068
2017-08-22T12:09:31.579Z,5660
2017-08-22T12:10:32.317Z,5428
2017-08-22T12:11:33.082Z,5452
2017-08-22T12:12:33.844Z,5656
2017-08-22T12:13:34.581Z,6336
2017-08-22T12:14:35.318Z,7120
2017-08-22T12:15:36.056Z,7144
2017-08-22T12:16:36.794Z,7468
2017-08-22T12:17:37.533Z,7892
2017-08-22T12:18:38.292Z,8280
2017-08-22T12:19:39.054Z,7164
2017-08-22T12:20:39.790Z,7236
2017-08-22T12:21:40.528Z,7320
2017-08-22T12:22:41.271Z,6100
2017-08-22T12:23:42.006Z,6532
2017-08-22T12:24:42.744Z,6652
2017-08-22T12:25:43.503Z,6760
2017-08-22T12:26:44.261Z,6024
2017-08-22T12:27:45.001Z,6080
2017-08-22T12:28:45.743Z,6644
2017-08-22T12:29:46.501Z,6884
2017-08-22T12:30:47.241Z,7108
2017-08-22T12:31:48.003Z,7088
2017-08-22T12:32:48.741Z,7088
2017-08-22T12:33:49.477Z,7080
2017-08-22T12:34:50.215Z,6868
2017-08-22T12:35:50.948Z,6184
2017-08-22T12:36:51.690Z,6464
2017-08-22T12:37:52.450Z,5732
2017-08-22T12:38:53.216Z,6160
2017-08-22T12:39:53.978Z,6500
2017-08-22T12:40:54.739Z,6808
2017-08-22T12:41:55.480Z,6468
2017-08-22T12:42:56.210Z,6284
2017-08-22T12:43:56.952Z,5968
2017-08-22T12:44:57.690Z,5812
2017-08-22T12:45:58.456Z,5252
2017-08-22T12:46:59.214Z,4460
2017-08-22T12:47:59.954Z,4340
2017-08-22T12:49:00.690Z,4372
2017-08-22T12:50:01.451Z,4356
2017-08-22T12:51:02.189Z,4204
2017-08-22T12:52:02.920Z,3944
2017-08-22T12:53:03.661Z,3740
2017-08-22T12:54:04.398Z,3728
2017-08-22T12:55:05.134Z,3824
2017-08-22T12:56:05.870Z,3740
2017-08-22T12:57:06.609Z,3544
2017-08-22T12:58:07.342Z,3364
2017-08-22T12:59:08.075Z,3308
2017-08-22T13:00:08.816Z,3348
2017-08-22T13:01:09.553Z,3328
2017-08-22T13:02:10.284Z,3512
2017-08-22T13:03:11.019Z,4068
2017-08-22T13:04:11.777Z,4520
2017-08-22T13:05:12.542Z,4540
2017-08-22T13:06:13.302Z,4452
2017-08-22T13:07:14.038Z,4456
2017-08-22T13:08:14.798Z,4644
2017-08-22T13:09:15.534Z,4700
2017-08-22T13:10:16.267Z,4740
2017-08-22T13:11:17.031Z,4728
2017-08-22T13:12:17.792Z,4792
2017-08-22T13:13:18.554Z,4928
2017-08-22T13:14:19.288Z,4932
2017-08-22T13:15:20.050Z,4832
2017-08-22T13:16:20.805Z,4736
2017-08-22T13:17:21.540Z,4748
2017-08-22T13:18:22.276Z,4712
2017-08-22T13:19:23.013Z,4624
2017-08-22T13:20:23.747Z,4716
2017-08-22T13:21:24.507Z,4768
2017-08-22T13:22:25.243Z,4944
2017-08-22T13:23:25.978Z,5136
2017-08-22T13:24:26.715Z,5232
2017-08-22T13:25:27.453Z,5176
2017-08-22T13:26:28.187Z,4960
2017-08-22T13:27:28.928Z,4716
2017-08-22T13:28:29.660Z,4524
2017-08-22T13:29:30.417Z,4296
2017-08-22T13:30:31.180Z,4124
2017-08-22T13:31:31.943Z,3688
2017-08-22T13:32:32.676Z,3572
2017-08-22T13:33:33.410Z,3384
2017-08-22T13:34:34.146Z,3376
2017-08-22T13:35:34.905Z,3588
2017-08-22T13:36:35.634Z,3720
2017-08-22T13:37:36.371Z,3756
2017-08-22T13:38:37.107Z,4140
2017-08-22T13:39:37.843Z,3756
2017-08-22T13:40:38.578Z,3580
2017-08-22T13:41:39.314Z,3476
2017-08-22T13:42:40.046Z,3580
2017-08-22T13:43:40.804Z,3644
2017-08-22T13:44:41.543Z,3564
2017-08-22T13:45:42.276Z,3252
2017-08-22T13:46:43.217Z,3304
2017-08-22T13:47:43.952Z,3212
2017-08-22T13:48:44.684Z,3184
2017-08-22T13:49:45.445Z,3096